메인 페이지
METAR-TAF:

METAR-TAF

공항 :

우수아이아, 아르헨티나

위도: 54-48S, 경도: 068-19W, 고도: 16m

현재 날씨관측

예보는 31분 전, 16:00시(UTC)에 발표되었습니다.
서남서11kt
온도 1°C
습도 75%
기압 1021 hPa
시정 10km 이상
고도 4000ft 상공 구름 많음

METAR: SAWH 201600Z 24011KT 9999 BKN040 01/M03 Q1021

시각: 13:31 (16:31 UTC)

예보

예보는 5 시간 31분 전, 11:00시(UTC)에 발표되었습니다.
예보 대상 시간: 20일 12시부터 21일 12시까지 (UTC)
서남서15kt
시정 10km 이상
고도 2500ft 상공 구름 많음
고도 5000ft 상공 흐림
전환 중
20일 18시부터 20일 20시까지 (UTC)
북서10kt
시정 10km 이상
고도 1500ft 상공 흐림
이슬비,

TAF: SAWH 201100Z 2012/2112 25015KT 9999 BKN025 OVC050 TX01/2018Z TNM04/211Z BECMG 2018/2020 32010KT 9999 DZ OVC015

4,000개 이상의 공항 관측 자료 및 예보 (METAR 및 TAF 보고).

지도상에서 검색 가능한 기상관측소가 노란 점과 빨간 점으로 표시되어 있습니다.

기상관측소 명을 보려면 표시 위로 마우스를 이동하세요.

날씨 관측과 예보를 보려면 클릭하세요.

지도 변경 : 확대하려면 엑스 표시가 있는 녹색 버튼, 축소하려면 빼기 표시가 있는 녹색 버튼, 다음 페이지의 지도를 보려면 녹색 화살표를 클릭하세요.


METAR-TAF: